sensor_id;sensor_type;location;lat;lon;timestamp;temperature;humidity
49032;DHT22;63443;48.366;10.876;2022-10-22T00:00:31;15.60;99.90
49032;DHT22;63443;48.366;10.876;2022-10-22T00:02:57;15.60;99.90
49032;DHT22;63443;48.366;10.876;2022-10-22T00:05:23;15.50;99.90
49032;DHT22;63443;48.366;10.876;2022-10-22T00:07:48;15.60;99.90
49032;DHT22;63443;48.366;10.876;2022-10-22T00:10:14;15.60;99.90
49032;DHT22;63443;48.366;10.876;2022-10-22T00:12:41;15.60;99.90
49032;DHT22;63443;48.366;10.876;2022-10-22T00:15:07;15.60;99.90
49032;DHT22;63443;48.366;10.876;2022-10-22T00:17:33;15.60;99.90
49032;DHT22;63443;48.366;10.876;2022-10-22T00:19:59;15.50;99.90
49032;DHT22;63443;48.366;10.876;2022-10-22T00:22:24;15.40;99.90
49032;DHT22;63443;48.366;10.876;2022-10-22T00:24:50;15.50;99.90
49032;DHT22;63443;48.366;10.876;2022-10-22T00:27:15;15.60;99.90
49032;DHT22;63443;48.366;10.876;2022-10-22T00:29:41;15.60;99.90
49032;DHT22;63443;48.366;10.876;2022-10-22T00:32:07;15.60;99.90
49032;DHT22;63443;48.366;10.876;2022-10-22T00:34:32;15.50;99.90
49032;DHT22;63443;48.366;10.876;2022-10-22T00:36:58;15.60;99.90
49032;DHT22;63443;48.366;10.876;2022-10-22T00:39:25;15.60;99.90
49032;DHT22;63443;48.366;10.876;2022-10-22T00:41:52;15.50;99.90
49032;DHT22;63443;48.366;10.876;2022-10-22T00:47:22;15.40;99.90
49032;DHT22;63443;48.366;10.876;2022-10-22T00:49:50;15.40;99.90
49032;DHT22;63443;48.366;10.876;2022-10-22T00:52:18;15.50;99.90
49032;DHT22;63443;48.366;10.876;2022-10-22T00:54:44;15.50;99.90
49032;DHT22;63443;48.366;10.876;2022-10-22T00:57:09;15.50;99.90
49032;DHT22;63443;48.366;10.876;2022-10-22T00:59:36;15.60;99.90
49032;DHT22;63443;48.366;10.876;2022-10-22T01:02:02;15.60;99.90
49032;DHT22;63443;48.366;10.876;2022-10-22T01:04:28;15.60;99.90
49032;DHT22;63443;48.366;10.876;2022-10-22T01:06:53;15.50;99.90
49032;DHT22;63443;48.366;10.876;2022-10-22T01:12:02;15.50;99.90
49032;DHT22;63443;48.366;10.876;2022-10-22T01:14:48;15.40;99.90
49032;DHT22;63443;48.366;10.876;2022-10-22T01:20:40;15.40;99.90
49032;DHT22;63443;48.366;10.876;2022-10-22T01:29:48;15.40;99.90
49032;DHT22;63443;48.366;10.876;2022-10-22T01:32:18;15.50;99.90
49032;DHT22;63443;48.366;10.876;2022-10-22T01:34:49;15.40;99.90
49032;DHT22;63443;48.366;10.876;2022-10-22T01:37:17;15.60;99.90
49032;DHT22;63443;48.366;10.876;2022-10-22T01:39:45;15.60;99.90
49032;DHT22;63443;48.366;10.876;2022-10-22T01:42:12;15.60;99.90
49032;DHT22;63443;48.366;10.876;2022-10-22T01:44:39;15.70;99.90
49032;DHT22;63443;48.366;10.876;2022-10-22T01:58:30;15.30;99.90
49032;DHT22;63443;48.366;10.876;2022-10-22T02:04:25;15.20;99.90
49032;DHT22;63443;48.366;10.876;2022-10-22T02:06:55;15.00;99.90
49032;DHT22;63443;48.366;10.876;2022-10-22T02:09:25;15.00;99.90
49032;DHT22;63443;48.366;10.876;2022-10-22T02:11:51;15.00;99.90
49032;DHT22;63443;48.366;10.876;2022-10-22T02:14:19;14.90;99.90
49032;DHT22;63443;48.366;10.876;2022-10-22T02:16:47;14.90;99.90
49032;DHT22;63443;48.366;10.876;2022-10-22T02:19:29;14.80;99.90
49032;DHT22;63443;48.366;10.876;2022-10-22T02:22:00;14.80;99.90
49032;DHT22;63443;48.366;10.876;2022-10-22T02:24:25;14.80;99.90
49032;DHT22;63443;48.366;10.876;2022-10-22T02:27:03;14.80;99.90
49032;DHT22;63443;48.366;10.876;2022-10-22T02:29:41;14.70;99.90
49032;DHT22;63443;48.366;10.876;2022-10-22T02:32:09;14.70;99.90
49032;DHT22;63443;48.366;10.876;2022-10-22T02:34:36;14.70;99.90
49032;DHT22;63443;48.366;10.876;2022-10-22T02:37:03;14.70;99.90
49032;DHT22;63443;48.366;10.876;2022-10-22T02:39:30;14.60;99.90
49032;DHT22;63443;48.366;10.876;2022-10-22T02:41:56;14.60;99.90
49032;DHT22;63443;48.366;10.876;2022-10-22T02:44:22;14.60;99.90
49032;DHT22;63443;48.366;10.876;2022-10-22T02:46:48;14.60;99.90
49032;DHT22;63443;48.366;10.876;2022-10-22T02:49:14;14.70;99.90
49032;DHT22;63443;48.366;10.876;2022-10-22T02:51:40;14.70;99.90
49032;DHT22;63443;48.366;10.876;2022-10-22T02:54:05;14.80;99.90
49032;DHT22;63443;48.366;10.876;2022-10-22T02:56:31;14.80;99.90
49032;DHT22;63443;48.366;10.876;2022-10-22T02:58:57;14.70;99.90
49032;DHT22;63443;48.366;10.876;2022-10-22T03:01:23;14.70;99.90
49032;DHT22;63443;48.366;10.876;2022-10-22T03:03:49;14.60;99.90
49032;DHT22;63443;48.366;10.876;2022-10-22T03:06:14;14.60;99.90
49032;DHT22;63443;48.366;10.876;2022-10-22T03:08:40;14.60;99.90
49032;DHT22;63443;48.366;10.876;2022-10-22T03:11:06;14.60;99.90
49032;DHT22;63443;48.366;10.876;2022-10-22T03:13:31;14.60;99.90
49032;DHT22;63443;48.366;10.876;2022-10-22T03:15:57;14.60;99.90
49032;DHT22;63443;48.366;10.876;2022-10-22T03:18:22;14.50;99.90
49032;DHT22;63443;48.366;10.876;2022-10-22T03:20:48;14.50;99.90
49032;DHT22;63443;48.366;10.876;2022-10-22T03:23:15;14.40;99.90
49032;DHT22;63443;48.366;10.876;2022-10-22T03:25:43;14.50;99.90
49032;DHT22;63443;48.366;10.876;2022-10-22T03:28:12;14.50;99.90
49032;DHT22;63443;48.366;10.876;2022-10-22T03:30:39;14.50;99.90
49032;DHT22;63443;48.366;10.876;2022-10-22T03:33:04;14.50;99.90
49032;DHT22;63443;48.366;10.876;2022-10-22T03:35:30;14.50;99.90
49032;DHT22;63443;48.366;10.876;2022-10-22T03:37:59;14.50;99.90
49032;DHT22;63443;48.366;10.876;2022-10-22T03:40:25;14.50;99.90
49032;DHT22;63443;48.366;10.876;2022-10-22T03:42:51;14.40;99.90
49032;DHT22;63443;48.366;10.876;2022-10-22T03:45:17;14.40;99.90
49032;DHT22;63443;48.366;10.876;2022-10-22T03:47:42;14.40;99.90
49032;DHT22;63443;48.366;10.876;2022-10-22T03:50:08;14.30;99.90
49032;DHT22;63443;48.366;10.876;2022-10-22T03:52:36;14.30;99.90
49032;DHT22;63443;48.366;10.876;2022-10-22T03:55:04;14.40;99.90
49032;DHT22;63443;48.366;10.876;2022-10-22T03:57:29;14.30;99.90
49032;DHT22;63443;48.366;10.876;2022-10-22T03:59:55;14.30;99.90
49032;DHT22;63443;48.366;10.876;2022-10-22T04:02:21;14.20;99.90
49032;DHT22;63443;48.366;10.876;2022-10-22T04:04:46;14.30;99.90
49032;DHT22;63443;48.366;10.876;2022-10-22T04:07:12;14.30;99.90
49032;DHT22;63443;48.366;10.876;2022-10-22T04:09:37;14.30;99.90
49032;DHT22;63443;48.366;10.876;2022-10-22T04:12:03;14.30;99.90
49032;DHT22;63443;48.366;10.876;2022-10-22T04:14:33;14.30;99.90
49032;DHT22;63443;48.366;10.876;2022-10-22T04:16:58;14.30;99.90
49032;DHT22;63443;48.366;10.876;2022-10-22T04:19:24;14.20;99.90
49032;DHT22;63443;48.366;10.876;2022-10-22T04:21:49;14.20;99.90
49032;DHT22;63443;48.366;10.876;2022-10-22T04:24:15;14.30;99.90
49032;DHT22;63443;48.366;10.876;2022-10-22T04:26:41;14.20;99.90
49032;DHT22;63443;48.366;10.876;2022-10-22T04:29:07;14.20;99.90
49032;DHT22;63443;48.366;10.876;2022-10-22T04:31:33;14.30;99.90
49032;DHT22;63443;48.366;10.876;2022-10-22T04:33:59;14.30;99.90
49032;DHT22;63443;48.366;10.876;2022-10-22T04:36:26;14.40;99.90
49032;DHT22;63443;48.366;10.876;2022-10-22T04:39:02;14.30;99.90
49032;DHT22;63443;48.366;10.876;2022-10-22T04:41:33;14.30;99.90
49032;DHT22;63443;48.366;10.876;2022-10-22T04:44:00;14.20;99.90
49032;DHT22;63443;48.366;10.876;2022-10-22T04:46:28;14.20;99.90
49032;DHT22;63443;48.366;10.876;2022-10-22T04:48:54;14.20;99.90
49032;DHT22;63443;48.366;10.876;2022-10-22T04:51:21;14.20;99.90
49032;DHT22;63443;48.366;10.876;2022-10-22T04:53:48;14.20;99.90
49032;DHT22;63443;48.366;10.876;2022-10-22T04:56:20;14.40;99.90
49032;DHT22;63443;48.366;10.876;2022-10-22T04:58:51;14.30;99.90
49032;DHT22;63443;48.366;10.876;2022-10-22T05:01:29;14.30;99.90
49032;DHT22;63443;48.366;10.876;2022-10-22T05:03:57;14.30;99.90
49032;DHT22;63443;48.366;10.876;2022-10-22T05:06:24;14.30;99.90
49032;DHT22;63443;48.366;10.876;2022-10-22T05:09:12;14.20;99.90
49032;DHT22;63443;48.366;10.876;2022-10-22T05:11:39;14.20;99.90
49032;DHT22;63443;48.366;10.876;2022-10-22T05:14:15;14.00;99.90
49032;DHT22;63443;48.366;10.876;2022-10-22T05:16:41;14.10;99.90
49032;DHT22;63443;48.366;10.876;2022-10-22T05:19:10;14.10;99.90
49032;DHT22;63443;48.366;10.876;2022-10-22T05:21:38;14.10;99.90
49032;DHT22;63443;48.366;10.876;2022-10-22T05:24:04;14.00;99.90
49032;DHT22;63443;48.366;10.876;2022-10-22T05:26:30;14.10;99.90
49032;DHT22;63443;48.366;10.876;2022-10-22T05:28:55;14.10;99.90
49032;DHT22;63443;48.366;10.876;2022-10-22T05:31:21;14.10;99.90
49032;DHT22;63443;48.366;10.876;2022-10-22T05:33:47;14.20;99.90
49032;DHT22;63443;48.366;10.876;2022-10-22T05:36:15;14.20;99.90
49032;DHT22;63443;48.366;10.876;2022-10-22T05:38:41;14.30;99.90
49032;DHT22;63443;48.366;10.876;2022-10-22T05:41:15;14.30;99.90
49032;DHT22;63443;48.366;10.876;2022-10-22T05:43:41;14.30;99.90
49032;DHT22;63443;48.366;10.876;2022-10-22T05:46:09;14.10;99.90
49032;DHT22;63443;48.366;10.876;2022-10-22T05:48:35;14.10;99.90
49032;DHT22;63443;48.366;10.876;2022-10-22T05:51:06;14.10;99.90
49032;DHT22;63443;48.366;10.876;2022-10-22T05:53:34;14.10;99.90
49032;DHT22;63443;48.366;10.876;2022-10-22T05:56:01;14.00;99.90
49032;DHT22;63443;48.366;10.876;2022-10-22T05:58:27;14.00;99.90
49032;DHT22;63443;48.366;10.876;2022-10-22T06:00:53;14.00;99.90
49032;DHT22;63443;48.366;10.876;2022-10-22T06:03:18;13.90;99.90
49032;DHT22;63443;48.366;10.876;2022-10-22T06:05:44;13.80;99.90
49032;DHT22;63443;48.366;10.876;2022-10-22T06:08:11;13.70;99.90
49032;DHT22;63443;48.366;10.876;2022-10-22T06:10:41;13.70;99.90
49032;DHT22;63443;48.366;10.876;2022-10-22T06:13:07;13.70;99.90
49032;DHT22;63443;48.366;10.876;2022-10-22T06:15:33;13.70;99.90
49032;DHT22;63443;48.366;10.876;2022-10-22T06:17:58;13.80;99.90
49032;DHT22;63443;48.366;10.876;2022-10-22T06:20:24;13.90;99.90
49032;DHT22;63443;48.366;10.876;2022-10-22T06:22:50;14.00;99.90
49032;DHT22;63443;48.366;10.876;2022-10-22T06:25:16;14.00;99.90
49032;DHT22;63443;48.366;10.876;2022-10-22T06:27:41;14.10;99.90
49032;DHT22;63443;48.366;10.876;2022-10-22T06:30:07;14.20;99.90
49032;DHT22;63443;48.366;10.876;2022-10-22T06:32:33;14.30;99.90
49032;DHT22;63443;48.366;10.876;2022-10-22T06:34:59;14.30;99.90
49032;DHT22;63443;48.366;10.876;2022-10-22T06:37:24;14.30;99.90
49032;DHT22;63443;48.366;10.876;2022-10-22T06:39:50;14.30;99.90
49032;DHT22;63443;48.366;10.876;2022-10-22T06:42:15;14.40;99.90
49032;DHT22;63443;48.366;10.876;2022-10-22T06:44:41;14.40;99.90
49032;DHT22;63443;48.366;10.876;2022-10-22T06:47:06;14.50;99.90
49032;DHT22;63443;48.366;10.876;2022-10-22T06:49:32;14.50;99.90
49032;DHT22;63443;48.366;10.876;2022-10-22T06:51:57;14.50;99.90
49032;DHT22;63443;48.366;10.876;2022-10-22T06:54:23;14.50;99.90
49032;DHT22;63443;48.366;10.876;2022-10-22T06:56:49;14.40;99.90
49032;DHT22;63443;48.366;10.876;2022-10-22T06:59:14;14.40;99.90
49032;DHT22;63443;48.366;10.876;2022-10-22T07:01:40;14.40;99.90
49032;DHT22;63443;48.366;10.876;2022-10-22T07:04:06;14.40;99.90
49032;DHT22;63443;48.366;10.876;2022-10-22T07:06:33;14.30;99.90
49032;DHT22;63443;48.366;10.876;2022-10-22T07:08:59;14.40;99.90
49032;DHT22;63443;48.366;10.876;2022-10-22T07:11:30;14.40;99.90
49032;DHT22;63443;48.366;10.876;2022-10-22T07:13:58;14.50;99.90
49032;DHT22;63443;48.366;10.876;2022-10-22T07:16:24;14.40;99.90
49032;DHT22;63443;48.366;10.876;2022-10-22T07:18:56;14.40;99.90
49032;DHT22;63443;48.366;10.876;2022-10-22T07:21:22;14.40;99.90
49032;DHT22;63443;48.366;10.876;2022-10-22T07:23:47;14.50;99.90
49032;DHT22;63443;48.366;10.876;2022-10-22T07:26:16;14.50;99.90
49032;DHT22;63443;48.366;10.876;2022-10-22T07:28:42;14.60;99.90
49032;DHT22;63443;48.366;10.876;2022-10-22T07:31:10;14.60;99.90
49032;DHT22;63443;48.366;10.876;2022-10-22T07:33:36;14.70;99.90
49032;DHT22;63443;48.366;10.876;2022-10-22T07:36:05;14.80;99.90
49032;DHT22;63443;48.366;10.876;2022-10-22T07:38:31;14.90;99.90
49032;DHT22;63443;48.366;10.876;2022-10-22T07:40:57;14.90;99.90
49032;DHT22;63443;48.366;10.876;2022-10-22T07:43:23;14.90;99.90
49032;DHT22;63443;48.366;10.876;2022-10-22T07:45:49;14.80;99.90
49032;DHT22;63443;48.366;10.876;2022-10-22T07:48:15;14.80;99.90
49032;DHT22;63443;48.366;10.876;2022-10-22T07:50:41;14.80;99.90
49032;DHT22;63443;48.366;10.876;2022-10-22T07:53:06;14.80;99.90
49032;DHT22;63443;48.366;10.876;2022-10-22T07:55:33;14.90;99.90
49032;DHT22;63443;48.366;10.876;2022-10-22T07:57:58;14.90;99.90
49032;DHT22;63443;48.366;10.876;2022-10-22T08:00:24;14.80;99.90
49032;DHT22;63443;48.366;10.876;2022-10-22T08:02:49;14.80;99.90
49032;DHT22;63443;48.366;10.876;2022-10-22T08:05:15;14.90;99.90
49032;DHT22;63443;48.366;10.876;2022-10-22T08:07:41;14.90;99.90
49032;DHT22;63443;48.366;10.876;2022-10-22T08:10:08;15.10;99.90
49032;DHT22;63443;48.366;10.876;2022-10-22T08:12:34;15.20;99.90
49032;DHT22;63443;48.366;10.876;2022-10-22T08:14:59;15.20;99.90
49032;DHT22;63443;48.366;10.876;2022-10-22T08:17:26;15.30;99.90
49032;DHT22;63443;48.366;10.876;2022-10-22T08:19:51;15.40;99.90
49032;DHT22;63443;48.366;10.876;2022-10-22T08:22:17;15.50;99.90
49032;DHT22;63443;48.366;10.876;2022-10-22T08:24:43;15.60;99.90
49032;DHT22;63443;48.366;10.876;2022-10-22T08:27:08;15.60;99.90
49032;DHT22;63443;48.366;10.876;2022-10-22T08:29:34;15.70;99.90
49032;DHT22;63443;48.366;10.876;2022-10-22T08:31:59;15.70;99.90
49032;DHT22;63443;48.366;10.876;2022-10-22T08:34:27;15.80;99.90
49032;DHT22;63443;48.366;10.876;2022-10-22T08:36:53;15.80;99.90
49032;DHT22;63443;48.366;10.876;2022-10-22T08:39:19;15.80;99.90
49032;DHT22;63443;48.366;10.876;2022-10-22T08:42:00;15.90;99.90
49032;DHT22;63443;48.366;10.876;2022-10-22T08:49:38;16.00;99.90
49032;DHT22;63443;48.366;10.876;2022-10-22T08:52:11;16.00;99.90
49032;DHT22;63443;48.366;10.876;2022-10-22T09:00:10;15.80;99.90
49032;DHT22;63443;48.366;10.876;2022-10-22T09:05:22;15.90;99.90
49032;DHT22;63443;48.366;10.876;2022-10-22T09:07:50;16.00;99.90
49032;DHT22;63443;48.366;10.876;2022-10-22T09:10:18;16.10;99.90
49032;DHT22;63443;48.366;10.876;2022-10-22T09:12:47;16.10;99.90
49032;DHT22;63443;48.366;10.876;2022-10-22T09:15:17;16.20;99.90
49032;DHT22;63443;48.366;10.876;2022-10-22T09:20:49;16.30;99.90
49032;DHT22;63443;48.366;10.876;2022-10-22T09:23:55;16.40;99.90
49032;DHT22;63443;48.366;10.876;2022-10-22T09:26:24;16.30;99.90
49032;DHT22;63443;48.366;10.876;2022-10-22T09:28:52;16.40;99.90
49032;DHT22;63443;48.366;10.876;2022-10-22T09:31:17;16.40;99.90
49032;DHT22;63443;48.366;10.876;2022-10-22T09:33:45;16.50;99.90
49032;DHT22;63443;48.366;10.876;2022-10-22T09:36:16;16.60;99.90
49032;DHT22;63443;48.366;10.876;2022-10-22T09:38:48;16.70;99.90
49032;DHT22;63443;48.366;10.876;2022-10-22T09:41:16;16.70;99.90
49032;DHT22;63443;48.366;10.876;2022-10-22T09:43:42;16.70;99.90
49032;DHT22;63443;48.366;10.876;2022-10-22T09:46:29;16.90;99.90
49032;DHT22;63443;48.366;10.876;2022-10-22T09:49:09;16.80;99.90
49032;DHT22;63443;48.366;10.876;2022-10-22T09:51:56;16.80;99.90
49032;DHT22;63443;48.366;10.876;2022-10-22T09:54:24;16.90;99.90
49032;DHT22;63443;48.366;10.876;2022-10-22T09:57:19;17.00;99.90
49032;DHT22;63443;48.366;10.876;2022-10-22T09:59:48;17.00;99.90
49032;DHT22;63443;48.366;10.876;2022-10-22T10:02:19;16.90;99.90
49032;DHT22;63443;48.366;10.876;2022-10-22T10:04:50;16.70;99.90
49032;DHT22;63443;48.366;10.876;2022-10-22T10:09:46;16.70;99.90
49032;DHT22;63443;48.366;10.876;2022-10-22T10:15:18;16.50;99.90
49032;DHT22;63443;48.366;10.876;2022-10-22T10:23:07;16.50;99.90
49032;DHT22;63443;48.366;10.876;2022-10-22T10:26:06;16.50;99.90
49032;DHT22;63443;48.366;10.876;2022-10-22T10:31:51;16.70;99.90
49032;DHT22;63443;48.366;10.876;2022-10-22T10:37:29;16.70;99.90
49032;DHT22;63443;48.366;10.876;2022-10-22T10:42:42;16.80;99.90
49032;DHT22;63443;48.366;10.876;2022-10-22T10:50:59;17.00;99.90
49032;DHT22;63443;48.366;10.876;2022-10-22T11:07:06;17.00;99.90
49032;DHT22;63443;48.366;10.876;2022-10-22T11:09:42;17.00;99.90
49032;DHT22;63443;48.366;10.876;2022-10-22T11:12:17;17.00;99.90
49032;DHT22;63443;48.366;10.876;2022-10-22T11:17:17;17.20;99.90
49032;DHT22;63443;48.366;10.876;2022-10-22T11:19:50;17.20;99.90
49032;DHT22;63443;48.366;10.876;2022-10-22T11:22:27;17.30;99.90
49032;DHT22;63443;48.366;10.876;2022-10-22T11:25:16;17.30;99.90
49032;DHT22;63443;48.366;10.876;2022-10-22T11:30:25;17.40;99.90
49032;DHT22;63443;48.366;10.876;2022-10-22T11:32:56;17.50;99.90
49032;DHT22;63443;48.366;10.876;2022-10-22T11:35:36;17.60;99.90
49032;DHT22;63443;48.366;10.876;2022-10-22T11:38:04;17.70;99.90
49032;DHT22;63443;48.366;10.876;2022-10-22T11:40:43;17.80;99.90
49032;DHT22;63443;48.366;10.876;2022-10-22T11:43:11;17.90;99.90
49032;DHT22;63443;48.366;10.876;2022-10-22T11:45:57;18.00;99.90
49032;DHT22;63443;48.366;10.876;2022-10-22T11:48:27;18.10;99.90
49032;DHT22;63443;48.366;10.876;2022-10-22T11:50:58;18.20;99.90
49032;DHT22;63443;48.366;10.876;2022-10-22T11:55:56;18.50;99.40
49032;DHT22;63443;48.366;10.876;2022-10-22T12:11:39;20.20;95.90
49032;DHT22;63443;48.366;10.876;2022-10-22T12:16:57;20.80;93.90
49032;DHT22;63443;48.366;10.876;2022-10-22T12:19:37;21.30;93.20
49032;DHT22;63443;48.366;10.876;2022-10-22T12:24:36;22.00;91.50
49032;DHT22;63443;48.366;10.876;2022-10-22T12:27:02;22.50;91.30
49032;DHT22;63443;48.366;10.876;2022-10-22T12:29:31;22.90;90.50
49032;DHT22;63443;48.366;10.876;2022-10-22T12:32:02;22.90;90.00
49032;DHT22;63443;48.366;10.876;2022-10-22T12:34:28;23.60;89.90
49032;DHT22;63443;48.366;10.876;2022-10-22T12:36:54;24.00;86.40
49032;DHT22;63443;48.366;10.876;2022-10-22T12:39:25;23.80;86.70
49032;DHT22;63443;48.366;10.876;2022-10-22T12:41:52;24.20;85.40
49032;DHT22;63443;48.366;10.876;2022-10-22T12:44:18;24.30;84.40
49032;DHT22;63443;48.366;10.876;2022-10-22T12:46:46;24.40;82.10
49032;DHT22;63443;48.366;10.876;2022-10-22T12:49:24;24.40;81.10
49032;DHT22;63443;48.366;10.876;2022-10-22T12:51:53;24.40;80.80
49032;DHT22;63443;48.366;10.876;2022-10-22T12:54:25;24.20;80.20
49032;DHT22;63443;48.366;10.876;2022-10-22T12:56:52;24.00;80.70
49032;DHT22;63443;48.366;10.876;2022-10-22T12:59:22;24.20;79.00
49032;DHT22;63443;48.366;10.876;2022-10-22T13:01:50;24.00;78.40
49032;DHT22;63443;48.366;10.876;2022-10-22T13:06:46;24.60;75.10
49032;DHT22;63443;48.366;10.876;2022-10-22T13:09:19;24.80;74.10
49032;DHT22;63443;48.366;10.876;2022-10-22T13:11:54;25.30;73.90
49032;DHT22;63443;48.366;10.876;2022-10-22T13:14:31;26.30;72.40
49032;DHT22;63443;48.366;10.876;2022-10-22T13:20:20;26.20;70.20
49032;DHT22;63443;48.366;10.876;2022-10-22T13:22:58;26.70;70.40
49032;DHT22;63443;48.366;10.876;2022-10-22T13:25:35;28.00;67.80
49032;DHT22;63443;48.366;10.876;2022-10-22T13:30:35;27.00;67.60
49032;DHT22;63443;48.366;10.876;2022-10-22T13:33:16;26.50;67.20
49032;DHT22;63443;48.366;10.876;2022-10-22T13:35:45;26.10;67.20
49032;DHT22;63443;48.366;10.876;2022-10-22T13:38:17;26.10;67.60
49032;DHT22;63443;48.366;10.876;2022-10-22T13:40:44;25.50;68.90
49032;DHT22;63443;48.366;10.876;2022-10-22T13:43:09;25.30;69.50
49032;DHT22;63443;48.366;10.876;2022-10-22T13:45:35;25.10;69.90
49032;DHT22;63443;48.366;10.876;2022-10-22T13:48:02;25.00;69.80
49032;DHT22;63443;48.366;10.876;2022-10-22T13:50:27;24.80;69.80
49032;DHT22;63443;48.366;10.876;2022-10-22T13:52:55;24.50;70.30
49032;DHT22;63443;48.366;10.876;2022-10-22T13:55:27;24.40;72.10
49032;DHT22;63443;48.366;10.876;2022-10-22T13:58:10;24.30;71.90
49032;DHT22;63443;48.366;10.876;2022-10-22T14:00:41;24.20;72.10
49032;DHT22;63443;48.366;10.876;2022-10-22T14:03:16;24.20;72.90
49032;DHT22;63443;48.366;10.876;2022-10-22T14:05:45;24.10;73.20
49032;DHT22;63443;48.366;10.876;2022-10-22T14:08:15;24.00;72.60
49032;DHT22;63443;48.366;10.876;2022-10-22T14:10:42;23.90;73.60
49032;DHT22;63443;48.366;10.876;2022-10-22T14:13:14;23.90;72.70
49032;DHT22;63443;48.366;10.876;2022-10-22T14:15:40;23.80;72.70
49032;DHT22;63443;48.366;10.876;2022-10-22T14:18:07;23.80;72.80
49032;DHT22;63443;48.366;10.876;2022-10-22T14:20:35;23.80;72.80
49032;DHT22;63443;48.366;10.876;2022-10-22T14:23:18;23.80;72.70
49032;DHT22;63443;48.366;10.876;2022-10-22T14:25:44;23.80;72.40
49032;DHT22;63443;48.366;10.876;2022-10-22T14:28:10;23.60;72.80
49032;DHT22;63443;48.366;10.876;2022-10-22T14:30:37;23.60;73.20
49032;DHT22;63443;48.366;10.876;2022-10-22T14:33:16;23.40;73.60
49032;DHT22;63443;48.366;10.876;2022-10-22T14:35:43;23.30;73.70
49032;DHT22;63443;48.366;10.876;2022-10-22T14:38:09;23.10;73.90
49032;DHT22;63443;48.366;10.876;2022-10-22T14:40:35;23.10;74.60
49032;DHT22;63443;48.366;10.876;2022-10-22T14:43:04;23.10;75.50
49032;DHT22;63443;48.366;10.876;2022-10-22T14:45:29;23.10;75.90
49032;DHT22;63443;48.366;10.876;2022-10-22T14:47:55;23.00;73.60
49032;DHT22;63443;48.366;10.876;2022-10-22T14:50:22;22.90;74.30
49032;DHT22;63443;48.366;10.876;2022-10-22T14:52:48;22.90;74.70
49032;DHT22;63443;48.366;10.876;2022-10-22T14:55:16;22.80;74.90
49032;DHT22;63443;48.366;10.876;2022-10-22T14:57:42;22.80;74.50
49032;DHT22;63443;48.366;10.876;2022-10-22T15:00:11;22.70;74.90
49032;DHT22;63443;48.366;10.876;2022-10-22T15:02:37;22.60;76.30
49032;DHT22;63443;48.366;10.876;2022-10-22T15:05:03;22.50;75.20
49032;DHT22;63443;48.366;10.876;2022-10-22T15:07:29;22.50;76.00
49032;DHT22;63443;48.366;10.876;2022-10-22T15:09:54;22.40;76.40
49032;DHT22;63443;48.366;10.876;2022-10-22T15:12:20;22.30;77.20
49032;DHT22;63443;48.366;10.876;2022-10-22T15:14:46;22.30;77.20
49032;DHT22;63443;48.366;10.876;2022-10-22T15:17:13;22.40;76.70
49032;DHT22;63443;48.366;10.876;2022-10-22T15:19:38;22.30;77.40
49032;DHT22;63443;48.366;10.876;2022-10-22T15:22:04;22.20;77.60
49032;DHT22;63443;48.366;10.876;2022-10-22T15:24:30;22.20;77.40
49032;DHT22;63443;48.366;10.876;2022-10-22T15:26:56;22.00;77.80
49032;DHT22;63443;48.366;10.876;2022-10-22T15:29:21;22.00;78.50
49032;DHT22;63443;48.366;10.876;2022-10-22T15:31:53;22.00;78.80
49032;DHT22;63443;48.366;10.876;2022-10-22T15:34:24;21.90;79.60
49032;DHT22;63443;48.366;10.876;2022-10-22T15:36:52;21.80;80.30
49032;DHT22;63443;48.366;10.876;2022-10-22T15:39:18;21.80;80.50
49032;DHT22;63443;48.366;10.876;2022-10-22T15:41:44;21.80;81.10
49032;DHT22;63443;48.366;10.876;2022-10-22T15:44:20;21.70;81.50
49032;DHT22;63443;48.366;10.876;2022-10-22T15:46:46;21.60;82.30
49032;DHT22;63443;48.366;10.876;2022-10-22T15:49:12;21.60;81.60
49032;DHT22;63443;48.366;10.876;2022-10-22T15:51:38;21.70;81.20
49032;DHT22;63443;48.366;10.876;2022-10-22T15:54:05;21.50;81.50
49032;DHT22;63443;48.366;10.876;2022-10-22T15:56:31;21.30;82.30
49032;DHT22;63443;48.366;10.876;2022-10-22T15:58:59;21.20;83.10
49032;DHT22;63443;48.366;10.876;2022-10-22T16:01:25;21.10;83.40
49032;DHT22;63443;48.366;10.876;2022-10-22T16:03:52;21.00;83.80
49032;DHT22;63443;48.366;10.876;2022-10-22T16:06:25;20.80;84.30
49032;DHT22;63443;48.366;10.876;2022-10-22T16:08:52;20.60;85.00
49032;DHT22;63443;48.366;10.876;2022-10-22T16:11:19;20.40;85.60
49032;DHT22;63443;48.366;10.876;2022-10-22T16:13:44;20.20;86.40
49032;DHT22;63443;48.366;10.876;2022-10-22T16:16:10;20.10;87.10
49032;DHT22;63443;48.366;10.876;2022-10-22T16:18:35;19.90;88.10
49032;DHT22;63443;48.366;10.876;2022-10-22T16:21:01;19.70;88.90
49032;DHT22;63443;48.366;10.876;2022-10-22T16:23:27;19.60;89.70
49032;DHT22;63443;48.366;10.876;2022-10-22T16:25:52;19.50;90.40
49032;DHT22;63443;48.366;10.876;2022-10-22T16:28:18;19.40;90.90
49032;DHT22;63443;48.366;10.876;2022-10-22T16:30:44;19.40;91.20
49032;DHT22;63443;48.366;10.876;2022-10-22T16:33:10;19.30;91.50
49032;DHT22;63443;48.366;10.876;2022-10-22T16:35:42;19.20;91.40
49032;DHT22;63443;48.366;10.876;2022-10-22T16:38:09;19.20;91.60
49032;DHT22;63443;48.366;10.876;2022-10-22T16:40:35;19.20;91.60
49032;DHT22;63443;48.366;10.876;2022-10-22T16:43:01;18.90;91.90
49032;DHT22;63443;48.366;10.876;2022-10-22T16:45:26;18.90;92.10
49032;DHT22;63443;48.366;10.876;2022-10-22T16:47:52;18.60;92.30
49032;DHT22;63443;48.366;10.876;2022-10-22T16:50:17;18.60;92.70
49032;DHT22;63443;48.366;10.876;2022-10-22T16:52:43;18.40;93.10
49032;DHT22;63443;48.366;10.876;2022-10-22T16:55:08;18.30;93.60
49032;DHT22;63443;48.366;10.876;2022-10-22T16:57:34;18.20;93.90
49032;DHT22;63443;48.366;10.876;2022-10-22T17:00:00;18.20;94.50
49032;DHT22;63443;48.366;10.876;2022-10-22T17:02:26;18.20;94.70
49032;DHT22;63443;48.366;10.876;2022-10-22T17:04:51;18.20;95.00
49032;DHT22;63443;48.366;10.876;2022-10-22T17:07:17;18.20;95.40
49032;DHT22;63443;48.366;10.876;2022-10-22T17:09:42;18.20;95.70
49032;DHT22;63443;48.366;10.876;2022-10-22T17:12:08;18.20;96.00
49032;DHT22;63443;48.366;10.876;2022-10-22T17:14:34;18.10;96.00
49032;DHT22;63443;48.366;10.876;2022-10-22T17:16:59;18.10;96.30
49032;DHT22;63443;48.366;10.876;2022-10-22T17:19:25;18.10;96.40
49032;DHT22;63443;48.366;10.876;2022-10-22T17:21:51;18.10;96.10